createdAt,value
2016-05-27T00:00:37.293Z,62.9
2016-05-27T00:01:37.092Z,62.32
2016-05-27T00:02:37.095Z,63.09
2016-05-27T00:03:37.083Z,62.99
2016-05-27T00:04:36.882Z,62.99
2016-05-27T00:05:36.931Z,62.8
2016-05-27T00:06:36.872Z,62.8
2016-05-27T00:07:37.094Z,62.7
2016-05-27T00:08:37.283Z,62.9
2016-05-27T00:09:37.083Z,62.9
2016-05-27T00:10:37.289Z,62.8
2016-05-27T00:11:37.275Z,62.9
2016-05-27T00:12:37.075Z,62.8
2016-05-27T00:13:37.077Z,62.8
2016-05-27T00:14:36.925Z,62.9
2016-05-27T00:15:37.083Z,62.51
2016-05-27T00:16:37.070Z,62.7
2016-05-27T00:17:36.870Z,62.8
2016-05-27T00:18:37.435Z,62.7
2016-05-27T00:19:37.063Z,62.7
2016-05-27T00:20:37.066Z,62.9
2016-05-27T00:21:37.068Z,62.9
2016-05-27T00:22:37.273Z,62.7
2016-05-27T00:23:37.057Z,62.7
2016-05-27T00:24:37.077Z,62.8
2016-05-27T00:25:36.923Z,62.7
2016-05-27T00:26:37.270Z,62.6
2016-05-27T00:27:36.897Z,62.8
2016-05-27T00:28:37.071Z,62.8
2016-05-27T00:29:37.277Z,62.9
2016-05-27T00:30:36.858Z,62.9
2016-05-27T00:31:37.048Z,62.9
2016-05-27T00:32:36.895Z,62.67
2016-05-27T00:33:37.256Z,62.8
2016-05-27T00:34:36.853Z,62.7
2016-05-27T00:35:37.043Z,62.77
2016-05-27T00:36:37.108Z,62.9
2016-05-27T00:37:37.049Z,62.7
2016-05-27T00:38:37.052Z,62.67
2016-05-27T00:39:37.038Z,62.7
2016-05-27T00:40:37.041Z,62.8
2016-05-27T00:41:37.247Z,62.9
2016-05-27T00:42:37.249Z,62.9
2016-05-27T00:43:37.096Z,62.6
2016-05-27T00:44:36.849Z,62.7
2016-05-27T00:45:36.883Z,62.9
2016-05-27T00:46:37.041Z,62.9
2016-05-27T00:47:37.091Z,62.96
2016-05-27T00:48:37.765Z,62.9
2016-05-27T00:49:37.050Z,62.7
2016-05-27T00:50:37.240Z,62.96
2016-05-27T00:51:37.040Z,62.77
2016-05-27T00:52:36.870Z,62.87
2016-05-27T00:53:37.232Z,63.06
2016-05-27T00:54:37.235Z,63.15
2016-05-27T00:55:37.034Z,63.06
2016-05-27T00:56:36.818Z,62.87
2016-05-27T00:57:37.228Z,62.96
2016-05-27T00:58:36.823Z,62.87
2016-05-27T00:59:37.030Z,63.15
2016-05-27T01:00:37.032Z,63.25
2016-05-27T01:01:36.863Z,63.25
2016-05-27T01:02:37.226Z,63.15
2016-05-27T01:03:37.228Z,63.34
2016-05-27T01:04:36.825Z,63.06
2016-05-27T01:05:37.233Z,63.25
2016-05-27T01:06:37.080Z,63.15
2016-05-27T01:07:37.223Z,63.06
2016-05-27T01:08:37.225Z,63.34
2016-05-27T01:09:37.010Z,63.34
2016-05-27T01:10:37.215Z,63.06
2016-05-27T01:11:36.811Z,63.06
2016-05-27T01:12:36.861Z,63.25
2016-05-27T01:13:37.005Z,62.67
2016-05-27T01:14:37.008Z,62.96
2016-05-27T01:15:36.994Z,63.25
2016-05-27T01:16:37.013Z,63.34
2016-05-27T01:17:37.203Z,63.25
2016-05-27T01:18:37.003Z,63.15
2016-05-27T01:19:37.208Z,63.25
2016-05-27T01:20:36.805Z,63.06
2016-05-27T01:21:36.807Z,63.15
2016-05-27T01:22:36.999Z,63.15
2016-05-27T01:23:36.781Z,63.06
2016-05-27T01:24:37.003Z,63.15
2016-05-27T01:25:36.787Z,63.34
2016-05-27T01:26:37.009Z,63.15
2016-05-27T01:27:36.793Z,62.96
2016-05-27T01:28:37.187Z,63.06
2016-05-27T01:29:37.189Z,63.15
2016-05-27T01:30:36.988Z,63.06
2016-05-27T01:31:36.990Z,63.06
2016-05-27T01:32:36.790Z,63.15
2016-05-27T01:33:37.028Z,63.25
2016-05-27T01:34:37.187Z,63.06
2016-05-27T01:35:36.970Z,63.15
2016-05-27T01:36:36.972Z,63.25
2016-05-27T01:37:37.179Z,63.25
2016-05-27T01:38:36.978Z,63.06
2016-05-27T01:39:36.778Z,63.25
2016-05-27T01:40:37.171Z,63.34
2016-05-27T01:41:36.971Z,63.44
2016-05-27T01:42:37.177Z,63.15
2016-05-27T01:43:36.758Z,63.34
2016-05-27T01:44:36.760Z,63.06
2016-05-27T01:45:37.169Z,63.06
2016-05-27T01:46:37.172Z,63.15
2016-05-27T01:47:36.752Z,63.15
2016-05-27T01:48:37.177Z,63.15
2016-05-27T01:49:36.963Z,63.15
2016-05-27T01:50:36.985Z,63.12
2016-05-27T01:51:37.054Z,63.41
2016-05-27T01:52:36.811Z,63.31
2016-05-27T01:53:37.239Z,62.83
2016-05-27T01:54:37.259Z,63.51
2016-05-27T01:55:36.863Z,63.51
2016-05-27T01:56:36.856Z,63.22
2016-05-27T01:57:37.272Z,63.51
2016-05-27T01:58:37.079Z,63.02
2016-05-27T01:59:37.275Z,63.41
2016-05-27T02:00:37.077Z,63.51
2016-05-27T02:01:37.083Z,62.93
2016-05-27T02:02:37.072Z,63.7
2016-05-27T02:03:37.125Z,63.51
2016-05-27T02:04:37.286Z,63.12
2016-05-27T02:05:37.289Z,63.7
2016-05-27T02:06:37.074Z,63.31
2016-05-27T02:07:36.875Z,63.12
2016-05-27T02:08:36.879Z,63.51
2016-05-27T02:09:37.084Z,63.31
2016-05-27T02:10:36.869Z,63.12
2016-05-27T02:11:37.075Z,62.93
2016-05-27T02:12:37.079Z,63.12
2016-05-27T02:13:37.285Z,63.02
2016-05-27T02:14:37.068Z,62.93
2016-05-27T02:15:36.915Z,63.12
2016-05-27T02:16:37.090Z,63.31
2016-05-27T02:17:36.921Z,63.41
2016-05-27T02:18:37.080Z,63.22
2016-05-27T02:19:37.270Z,63.41
2016-05-27T02:20:37.069Z,63.41
2016-05-27T02:21:37.071Z,63.31
2016-05-27T02:22:37.262Z,63.51
2016-05-27T02:23:37.062Z,63.41
2016-05-27T02:24:37.252Z,63.51
2016-05-27T02:25:37.254Z,63.51
2016-05-27T02:26:37.054Z,63.41
2016-05-27T02:27:37.259Z,63.41
2016-05-27T02:28:37.059Z,63.31
2016-05-27T02:29:37.046Z,63.41
2016-05-27T02:30:37.253Z,63.41
2016-05-27T02:31:37.255Z,63.99
2016-05-27T02:32:37.242Z,63.41
2016-05-27T02:33:37.244Z,63.41
2016-05-27T02:34:36.857Z,63.41
2016-05-27T02:35:37.250Z,63.41
2016-05-27T02:36:37.034Z,63.51
2016-05-27T02:37:36.880Z,63.41
2016-05-27T02:38:37.040Z,63.51
2016-05-27T02:39:37.027Z,63.31
2016-05-27T02:40:37.232Z,63.31
2016-05-27T02:41:37.235Z,63.41
2016-05-27T02:42:37.238Z,63.51
2016-05-27T02:43:37.022Z,63.41
2016-05-27T02:44:37.025Z,63.48
2016-05-27T02:45:37.074Z,63.7
2016-05-27T02:46:37.029Z,63.6
2016-05-27T02:47:37.063Z,63.6
2016-05-27T02:48:37.238Z,63.41
2016-05-27T02:49:37.225Z,63.41
2016-05-27T02:50:36.807Z,63.99
2016-05-27T02:51:37.012Z,63.57
2016-05-27T02:52:37.015Z,63.79
2016-05-27T02:53:37.018Z,63.67
2016-05-27T02:54:37.207Z,63.86
2016-05-27T02:55:36.851Z,63.6
2016-05-27T02:56:37.213Z,63.67
2016-05-27T02:57:37.012Z,63.6
2016-05-27T02:58:36.796Z,63.86
2016-05-27T02:59:37.002Z,63.86
2016-05-27T03:00:36.849Z,63.86
2016-05-27T03:01:36.633Z,63.86
2016-05-27T03:02:36.995Z,63.76
2016-05-27T03:03:37.342Z,63.86
2016-05-27T03:04:36.984Z,63.76
2016-05-27T03:05:37.206Z,63.76
2016-05-27T03:06:36.990Z,63.28
2016-05-27T03:07:36.978Z,63.76
2016-05-27T03:08:36.776Z,63.86
2016-05-27T03:09:36.779Z,63.57
2016-05-27T03:10:37.001Z,63.95
2016-05-27T03:11:36.769Z,63.95
2016-05-27T03:12:36.991Z,63.57
2016-05-27T03:13:36.977Z,63.67
2016-05-27T03:14:36.965Z,63.95
2016-05-27T03:15:37.170Z,63.95
2016-05-27T03:16:36.970Z,63.57
2016-05-27T03:17:37.191Z,63.28
2016-05-27T03:18:37.194Z,63.57
2016-05-27T03:19:36.822Z,63.86
2016-05-27T03:20:37.169Z,63.48
2016-05-27T03:21:37.171Z,63.76
2016-05-27T03:22:36.955Z,63.38
2016-05-27T03:23:37.161Z,63.67
2016-05-27T03:24:36.960Z,63.48
2016-05-27T03:25:37.151Z,63.57
2016-05-27T03:26:36.949Z,63.48
2016-05-27T03:27:36.749Z,63.38
2016-05-27T03:28:36.955Z,63.48
2016-05-27T03:29:37.146Z,63.38
2016-05-27T03:30:36.945Z,63.38
2016-05-27T03:31:36.948Z,63.57
2016-05-27T03:32:37.154Z,63.57
2016-05-27T03:33:37.140Z,63.48
2016-05-27T03:34:36.784Z,63.38
2016-05-27T03:35:36.724Z,63.76
2016-05-27T03:36:36.930Z,63.57
2016-05-27T03:37:37.136Z,63.67
2016-05-27T03:38:36.936Z,63.95
2016-05-27T03:39:36.938Z,63.57
2016-05-27T03:40:37.128Z,63.95
2016-05-27T03:41:36.928Z,63.57
2016-05-27T03:42:36.712Z,63.86
2016-05-27T03:43:36.714Z,63.86
2016-05-27T03:44:36.920Z,63.86
2016-05-27T03:45:36.908Z,63.67
2016-05-27T03:46:36.910Z,63.76
2016-05-27T03:47:36.913Z,63.67
2016-05-27T03:48:37.009Z,63.57
2016-05-27T03:49:37.121Z,63.57
2016-05-27T03:50:36.749Z,63.57
2016-05-27T03:51:37.111Z,63.76
2016-05-27T03:52:36.894Z,63.67
2016-05-27T03:53:36.913Z,63.57
2016-05-27T03:54:36.947Z,63.76
2016-05-27T03:55:37.106Z,63.57
2016-05-27T03:56:36.702Z,63.28
2016-05-27T03:57:37.096Z,63.28
2016-05-27T03:58:36.910Z,63.28
2016-05-27T03:59:36.898Z,63.48
2016-05-27T04:00:37.088Z,63.57
2016-05-27T04:01:36.872Z,63.67
2016-05-27T04:02:36.890Z,63.57
2016-05-27T04:03:37.299Z,63.76
2016-05-27T04:04:36.881Z,63.48
2016-05-27T04:05:36.883Z,63.38
2016-05-27T04:06:36.917Z,63.48
2016-05-27T04:07:36.873Z,63.48
2016-05-27T04:08:36.875Z,63.76
2016-05-27T04:09:36.659Z,63.48
2016-05-27T04:10:37.068Z,63.86
2016-05-27T04:11:36.868Z,63.38
2016-05-27T04:12:36.870Z,63.57
2016-05-27T04:13:36.858Z,63.57
2016-05-27T04:14:36.844Z,63.48
2016-05-27T04:15:36.863Z,63.57
2016-05-27T04:16:36.647Z,63.57
2016-05-27T04:17:36.869Z,63.38
2016-05-27T04:18:36.839Z,63.76
2016-05-27T04:19:37.061Z,63.48
2016-05-27T04:20:36.845Z,63.38
2016-05-27T04:21:37.051Z,63.67
2016-05-27T04:22:37.038Z,63.48
2016-05-27T04:23:36.853Z,63.38
2016-05-27T04:24:36.840Z,63.48
2016-05-27T04:25:36.641Z,63.67
2016-05-27T04:26:36.643Z,63.86
2016-05-27T04:27:37.035Z,63.54
2016-05-27T04:28:36.835Z,63.48
2016-05-27T04:29:36.823Z,64.02
2016-05-27T04:30:36.621Z,63.45
2016-05-27T04:31:37.031Z,63.35
2016-05-27T04:32:36.831Z,63.28
2016-05-27T04:33:37.223Z,63.67
2016-05-27T04:34:37.148Z,63.25
2016-05-27T04:35:36.823Z,63.54
2016-05-27T04:36:36.809Z,63.92
2016-05-27T04:37:37.015Z,63.64
2016-05-27T04:38:37.018Z,63.54
2016-05-27T04:39:36.600Z,63.25
2016-05-27T04:40:36.805Z,63.45
2016-05-27T04:41:37.011Z,63.57
2016-05-27T04:42:36.608Z,63.48
2016-05-27T04:43:36.798Z,63.54
2016-05-27T04:44:36.597Z,63.73
2016-05-27T04:45:37.006Z,63.54
2016-05-27T04:46:36.994Z,63.57
2016-05-27T04:47:36.792Z,63.54
2016-05-27T04:48:37.014Z,63.45
2016-05-27T04:49:36.594Z,63.48
2016-05-27T04:50:36.988Z,63.35
2016-05-27T04:51:36.428Z,63.92
2016-05-27T04:52:36.775Z,63.48
2016-05-27T04:53:36.793Z,63.48
2016-05-27T04:54:36.624Z,63.38
2016-05-27T04:55:36.768Z,63.67
2016-05-27T04:56:36.566Z,63.48
2016-05-27T04:57:36.976Z,63.38
2016-05-27T04:58:36.776Z,63.57
2016-05-27T04:59:36.794Z,63.57
2016-05-27T05:00:36.765Z,63.45
2016-05-27T05:01:36.768Z,63.48
2016-05-27T05:02:36.754Z,63.45
2016-05-27T05:03:37.007Z,63.67
2016-05-27T05:04:36.807Z,63.54
2016-05-27T05:05:36.965Z,63.45
2016-05-27T05:06:36.765Z,63.45
2016-05-27T05:07:36.737Z,63.54
2016-05-27T05:08:36.943Z,63.45
2016-05-27T05:09:36.742Z,63.54
2016-05-27T05:10:36.745Z,63.38
2016-05-27T05:11:36.951Z,63.54
2016-05-27T05:12:36.735Z,63.25
2016-05-27T05:13:36.520Z,63.54
2016-05-27T05:14:36.725Z,63.73
2016-05-27T05:15:36.743Z,63.54
2016-05-27T05:16:36.730Z,63.54
2016-05-27T05:17:36.733Z,63.57
2016-05-27T05:18:37.236Z,63.35
2016-05-27T05:19:36.722Z,63.35
2016-05-27T05:20:36.928Z,63.48
2016-05-27T05:21:36.712Z,64.02
2016-05-27T05:22:36.918Z,63.64
2016-05-27T05:23:36.905Z,63.92
2016-05-27T05:24:36.549Z,63.45
2016-05-27T05:25:36.707Z,63.45
2016-05-27T05:26:36.913Z,63.54
2016-05-27T05:27:36.713Z,63.45
2016-05-27T05:28:36.700Z,63.45
2016-05-27T05:29:36.906Z,63.35
2016-05-27T05:30:36.907Z,63.45
2016-05-27T05:31:36.911Z,63.54
2016-05-27T05:32:36.914Z,63.64
2016-05-27T05:33:36.495Z,63.83
2016-05-27T05:34:36.685Z,63.54
2016-05-27T05:35:36.688Z,63.54
2016-05-27T05:36:36.893Z,63.35
2016-05-27T05:37:36.677Z,63.25
2016-05-27T05:38:36.884Z,63.45
2016-05-27T05:39:36.886Z,63.35
2016-05-27T05:40:36.514Z,63.45
2016-05-27T05:41:36.875Z,63.35
2016-05-27T05:42:36.879Z,63.25
2016-05-27T05:43:36.865Z,63.45
2016-05-27T05:44:36.867Z,63.18
2016-05-27T05:45:36.667Z,63.38
2016-05-27T05:46:36.873Z,63.35
2016-05-27T05:47:36.453Z,63.25
2016-05-27T05:48:36.660Z,63.15
2016-05-27T05:49:37.350Z,63.38
2016-05-27T05:50:36.853Z,63.25
2016-05-27T05:51:36.449Z,62.96
2016-05-27T05:52:36.842Z,63.67
2016-05-27T05:53:36.844Z,62.99
2016-05-27T05:54:36.645Z,63.06
2016-05-27T05:55:36.475Z,62.96
2016-05-27T05:56:36.447Z,63.06
2016-05-27T05:57:36.637Z,63.25
2016-05-27T05:58:36.640Z,63.09
2016-05-27T05:59:36.424Z,63.06
2016-05-27T06:00:36.833Z,63.54
2016-05-27T06:01:36.836Z,62.96
2016-05-27T06:02:36.823Z,62.96
2016-05-27T06:03:36.638Z,63.06
2016-05-27T06:04:36.812Z,63.09
2016-05-27T06:05:36.424Z,62.99
2016-05-27T06:06:36.412Z,63.25
2016-05-27T06:07:38.540Z,62.96
2016-05-27T06:08:36.620Z,63.18
2016-05-27T06:09:36.670Z,63.45
2016-05-27T06:10:36.610Z,62.87
2016-05-27T06:11:36.393Z,63.09
2016-05-27T06:12:38.380Z,62.87
2016-05-27T06:13:36.399Z,63.67
2016-05-27T06:14:36.792Z,63.35
2016-05-27T06:15:36.795Z,63.45
2016-05-27T06:16:36.391Z,63.06
2016-05-27T06:17:39.364Z,63.67
2016-05-27T06:18:37.241Z,63.45
2016-05-27T06:19:36.586Z,63.38
2016-05-27T06:20:36.653Z,63.06
2016-05-27T06:21:36.577Z,63.45
2016-05-27T06:22:39.752Z,63.15
2016-05-27T06:23:36.582Z,63.25
2016-05-27T06:24:36.788Z,63.06
2016-05-27T06:25:36.572Z,63.06
2016-05-27T06:26:36.558Z,63.25
2016-05-27T06:27:36.780Z,63.15
2016-05-27T06:28:36.768Z,63.25
2016-05-27T06:29:36.771Z,63.06
2016-05-27T06:30:36.398Z,63.09
2016-05-27T06:31:36.557Z,63.15
2016-05-27T06:32:36.763Z,63.06
2016-05-27T06:33:36.468Z,62.96
2016-05-27T06:34:36.565Z,63.06
2016-05-27T06:35:36.755Z,62.71
2016-05-27T06:36:36.757Z,62.51
2016-05-27T06:37:36.745Z,63.18
2016-05-27T06:38:36.341Z,63.06
2016-05-27T06:39:36.734Z,62.96
2016-05-27T06:40:36.754Z,62.96
2016-05-27T06:41:36.334Z,63.06
2016-05-27T06:42:36.539Z,63.28
2016-05-27T06:43:36.543Z,62.8
2016-05-27T06:44:36.186Z,62.9
2016-05-27T06:45:36.531Z,62.58
2016-05-27T06:46:36.737Z,62.77
2016-05-27T06:47:36.725Z,62.96
2016-05-27T06:48:36.165Z,62.77
2016-05-27T06:49:36.574Z,62.8
2016-05-27T06:50:36.514Z,62.77
2016-05-27T06:51:36.736Z,62.9
2016-05-27T06:52:36.707Z,63.18
2016-05-27T06:53:36.710Z,62.61
2016-05-27T06:54:36.713Z,62.99
2016-05-27T06:55:36.699Z,62.9
2016-05-27T06:56:36.719Z,62.8
2016-05-27T06:57:36.705Z,62.77
2016-05-27T06:58:36.552Z,62.8
2016-05-27T06:59:36.694Z,62.87
2016-05-27T07:00:36.493Z,62.87
2016-05-27T07:01:36.482Z,62.61
2016-05-27T07:02:36.703Z,62.71
2016-05-27T07:03:36.487Z,62.58
2016-05-27T07:04:38.723Z,62.68
2016-05-27T07:05:36.493Z,62.58
2016-05-27T07:06:36.291Z,62.38
2016-05-27T07:07:36.481Z,62.51
2016-05-27T07:08:36.672Z,62.8
2016-05-27T07:09:36.674Z,62.48
2016-05-27T07:10:36.677Z,62.9
2016-05-27T07:11:36.258Z,62.9
2016-05-27T07:12:36.479Z,62.71
2016-05-27T07:13:36.467Z,62.71
2016-05-27T07:14:36.469Z,62.48
2016-05-27T07:15:36.503Z,62.8
2016-05-27T07:16:36.662Z,62.77
2016-05-27T07:17:36.649Z,62.96
2016-05-27T07:18:36.715Z,62.61
2016-05-27T07:19:36.248Z,62.71
2016-05-27T07:20:36.642Z,62.77
2016-05-27T07:21:36.503Z,62.77
2016-05-27T07:22:36.648Z,62.68
2016-05-27T07:23:36.447Z,62.87
2016-05-27T07:24:37.777Z,62.68
2016-05-27T07:25:36.639Z,62.58
2016-05-27T07:26:36.439Z,62.58
2016-05-27T07:27:36.442Z,62.87
2016-05-27T07:28:36.429Z,62.77
2016-05-27T07:29:38.088Z,62.96
2016-05-27T07:30:36.638Z,62.96
2016-05-27T07:31:36.422Z,62.77
2016-05-27T07:32:36.627Z,62.77
2016-05-27T07:33:36.629Z,62.68
2016-05-27T07:34:36.414Z,62.96
2016-05-27T07:35:36.416Z,63.25
2016-05-27T07:36:36.607Z,63.06
2016-05-27T07:37:36.625Z,63.15
2016-05-27T07:38:36.612Z,63.35
2016-05-27T07:39:38.723Z,63.45
2016-05-27T07:40:36.196Z,63.06
2016-05-27T07:41:36.401Z,63.18
2016-05-27T07:42:36.451Z,63.15
2016-05-27T07:43:36.250Z,63.09
2016-05-27T07:44:36.441Z,62.77
2016-05-27T07:45:36.192Z,62.77
2016-05-27T07:46:36.431Z,63.06
2016-05-27T07:47:36.590Z,62.87
2016-05-27T07:48:36.389Z,63.15
2016-05-27T07:49:36.610Z,63.15
2016-05-27T07:50:36.379Z,62.87
2016-05-27T07:51:36.178Z,63.18
2016-05-27T07:52:36.571Z,62.9
2016-05-27T07:53:36.574Z,62.96
2016-05-27T07:54:39.327Z,63.06
2016-05-27T07:55:36.172Z,63.15
2016-05-27T07:56:36.160Z,63.09
2016-05-27T07:57:36.569Z,62.96
2016-05-27T07:58:36.353Z,63.09
2016-05-27T07:59:36.418Z,63.09
2016-05-27T08:00:36.562Z,63.09
2016-05-27T08:01:36.549Z,62.96
2016-05-27T08:02:36.363Z,63.09
2016-05-27T08:03:36.554Z,62.96
2016-05-27T08:04:36.354Z,63.18
2016-05-27T08:05:36.341Z,63.28
2016-05-27T08:06:36.546Z,63.25
2016-05-27T08:07:36.346Z,63.64
2016-05-27T08:08:36.536Z,63.48
2016-05-27T08:09:36.352Z,63.18
2016-05-27T08:10:36.323Z,62.99
2016-05-27T08:11:36.529Z,63.18
2016-05-27T08:12:36.375Z,63.18
2016-05-27T08:13:36.332Z,63.28
2016-05-27T08:14:36.537Z,63.28
2016-05-27T08:15:36.321Z,63.18
2016-05-27T08:16:36.323Z,63.18
2016-05-27T08:17:36.170Z,63.67
2016-05-27T08:18:36.532Z,63.67
2016-05-27T08:19:36.816Z,63.38
2016-05-27T08:20:36.522Z,63.38
2016-05-27T08:21:36.150Z,62.99
2016-05-27T08:22:36.308Z,63.18
2016-05-27T08:23:36.312Z,63.38
2016-05-27T08:24:36.314Z,63.48
2016-05-27T08:25:36.300Z,62.99
2016-05-27T08:26:36.100Z,63.76
2016-05-27T08:27:36.306Z,63.28
2016-05-27T08:28:36.091Z,63.09
2016-05-27T08:29:36.358Z,63.09
2016-05-27T08:30:36.299Z,62.8
2016-05-27T08:31:36.286Z,63.28
2016-05-27T08:32:36.132Z,63.28
2016-05-27T08:33:36.479Z,62.99
2016-05-27T08:34:38.388Z,63.09
2016-05-27T08:35:36.078Z,62.8
2016-05-27T08:36:36.283Z,63.28
2016-05-27T08:37:36.286Z,63.18
2016-05-27T08:38:36.273Z,63.18
2016-05-27T08:39:36.479Z,62.99
2016-05-27T08:40:36.466Z,63.18
2016-05-27T08:41:36.485Z,63.18
2016-05-27T08:42:36.268Z,63.48
2016-05-27T08:43:36.256Z,63.67
2016-05-27T08:44:36.290Z,63.86
2016-05-27T08:45:36.261Z,63.86
2016-05-27T08:46:36.467Z,64.47
2016-05-27T08:47:36.048Z,64.37
2016-05-27T08:48:36.456Z,64.43
2016-05-27T08:49:36.397Z,64.28
2016-05-27T08:50:36.259Z,64.28
2016-05-27T08:51:36.449Z,65.01
2016-05-27T08:52:36.452Z,64.66
2016-05-27T08:53:36.251Z,64.95
2016-05-27T08:54:36.051Z,64.56
2016-05-27T08:55:35.881Z,64.95
2016-05-27T08:56:36.244Z,64.66
2016-05-27T08:57:36.028Z,64.66
2016-05-27T08:58:36.030Z,64.56
2016-05-27T08:59:36.799Z,64.66
2016-05-27T09:00:36.441Z,64.95
2016-05-27T09:01:36.430Z,64.66
2016-05-27T09:02:36.432Z,64.76
2016-05-27T09:03:36.419Z,64.56
2016-05-27T09:04:36.500Z,64.95
2016-05-27T09:05:36.424Z,65.14
2016-05-27T09:06:36.224Z,65.05
2016-05-27T09:07:36.211Z,64.95
2016-05-27T09:08:36.213Z,64.66
2016-05-27T09:09:36.060Z,65.05
2016-05-27T09:10:36.407Z,65.14
2016-05-27T09:11:36.002Z,64.66
2016-05-27T09:12:36.412Z,64.86
2016-05-27T09:13:36.211Z,65.05
2016-05-27T09:14:36.199Z,64.95
2016-05-27T09:15:35.998Z,64.76
2016-05-27T09:16:35.984Z,64.47
2016-05-27T09:17:36.409Z,65.14
2016-05-27T09:18:36.397Z,64.56
2016-05-27T09:19:39.962Z,64.28
2016-05-27T09:20:35.980Z,64.37
2016-05-27T09:21:36.389Z,64.18
2016-05-27T09:22:36.188Z,64.08
2016-05-27T09:23:36.192Z,64.08
2016-05-27T09:24:35.976Z,64.28
2016-05-27T09:25:36.181Z,64.21
2016-05-27T09:26:35.965Z,64.47
2016-05-27T09:27:35.967Z,63.92
2016-05-27T09:28:36.220Z,64.21
2016-05-27T09:29:36.176Z,64.5
2016-05-27T09:30:36.178Z,64.12
2016-05-27T09:31:36.166Z,63.64
2016-05-27T09:32:36.169Z,64.21
2016-05-27T09:33:36.171Z,64.31
2016-05-27T09:34:36.236Z,63.73
2016-05-27T09:35:36.161Z,63.82
2016-05-27T09:36:36.149Z,63.73
2016-05-27T09:37:35.947Z,63.64
2016-05-27T09:38:36.200Z,63.64
2016-05-27T09:39:36.360Z,63.64
2016-05-27T09:40:35.955Z,63.54
2016-05-27T09:41:35.974Z,63.44
2016-05-27T09:42:36.352Z,63.64
2016-05-27T09:43:36.338Z,63.44
2016-05-27T09:44:36.201Z,64.21
2016-05-27T09:45:39.454Z,64.12
2016-05-27T09:46:36.143Z,64.31
2016-05-27T09:47:36.146Z,64.12
2016-05-27T09:48:36.149Z,64.31
2016-05-27T09:49:36.183Z,64.21
2016-05-27T09:50:36.139Z,64.4
2016-05-27T09:51:36.126Z,64.12
2016-05-27T09:52:36.347Z,64.5
2016-05-27T09:53:36.131Z,64.69
2016-05-27T09:54:35.931Z,64.5
2016-05-27T09:55:36.121Z,64.98
2016-05-27T09:56:36.327Z,65.17
2016-05-27T09:57:36.111Z,65.37
2016-05-27T09:58:36.113Z,65.17
2016-05-27T09:59:35.929Z,64.69
2016-05-27T10:00:36.306Z,64.59
2016-05-27T10:01:36.122Z,64.59
2016-05-27T10:02:36.108Z,64.4
2016-05-27T10:03:36.111Z,64.31
2016-05-27T10:04:36.019Z,64.31
2016-05-27T10:05:36.102Z,64.31
2016-05-27T10:06:36.105Z,64.31
2016-05-27T10:07:36.107Z,64.02
2016-05-27T10:08:35.890Z,64.31
2016-05-27T10:09:36.096Z,64.31
2016-05-27T10:10:36.114Z,64.5
2016-05-27T10:11:36.304Z,64.69
2016-05-27T10:12:36.308Z,64.82
2016-05-27T10:13:36.310Z,64.82
2016-05-27T10:14:36.297Z,64.43
2016-05-27T10:15:35.940Z,64.34
2016-05-27T10:16:35.896Z,64.12
2016-05-27T10:17:36.134Z,64.63
2016-05-27T10:18:35.933Z,64.25
2016-05-27T10:19:36.701Z,63.95
2016-05-27T10:20:36.095Z,64.34
2016-05-27T10:21:36.081Z,63.85
2016-05-27T10:22:35.709Z,63.95
2016-05-27T10:23:36.290Z,64.34
2016-05-27T10:24:36.278Z,63.95
2016-05-27T10:25:35.748Z,63.76
2016-05-27T10:26:36.079Z,63.76
2016-05-27T10:27:36.067Z,63.95
2016-05-27T10:28:36.288Z,63.57
2016-05-27T10:29:36.072Z,63.67
2016-05-27T10:30:36.075Z,63.09
2016-05-27T10:31:36.264Z,62.7
2016-05-27T10:32:36.267Z,63.41
2016-05-27T10:33:36.270Z,63.38
2016-05-27T10:34:35.866Z,63.18
2016-05-27T10:35:36.275Z,63.47
2016-05-27T10:36:36.060Z,63.95
2016-05-27T10:37:36.062Z,63.5
2016-05-27T10:38:36.066Z,64.18
2016-05-27T10:39:36.068Z,62.99
2016-05-27T10:40:36.070Z,63.7
2016-05-27T10:41:35.902Z,63.5
2016-05-27T10:42:36.060Z,63.12
2016-05-27T10:43:35.844Z,63.5
2016-05-27T10:44:36.253Z,63.41
2016-05-27T10:45:35.849Z,63.31
2016-05-27T10:46:36.055Z,63.21
2016-05-27T10:47:35.839Z,63.31
2016-05-27T10:48:36.248Z,62.93
2016-05-27T10:49:36.250Z,63.31
2016-05-27T10:50:36.253Z,63.12
2016-05-27T10:51:36.038Z,63.21
2016-05-27T10:52:36.040Z,62.83
2016-05-27T10:53:35.839Z,63.21
2016-05-27T10:54:36.233Z,63.21
2016-05-27T10:55:36.032Z,63.31
2016-05-27T10:56:36.060Z,63.02
2016-05-27T10:57:36.105Z,63.79
2016-05-27T10:58:36.117Z,63.41
2016-05-27T10:59:35.974Z,63.41
2016-05-27T11:00:35.956Z,63.5
2016-05-27T11:01:36.374Z,63.5
2016-05-27T11:02:36.370Z,63.6
2016-05-27T11:03:36.179Z,63.7
2016-05-27T11:04:36.503Z,64.28
2016-05-27T11:05:36.188Z,64.56
2016-05-27T11:06:36.194Z,64.66
2016-05-27T11:07:36.184Z,65.24
2016-05-27T11:08:36.409Z,64.56
2016-05-27T11:09:35.993Z,64.37
2016-05-27T11:10:37.422Z,64.47
2016-05-27T11:11:36.206Z,64.37
2016-05-27T11:12:36.007Z,64.56
2016-05-27T11:13:36.213Z,64.56
2016-05-27T11:14:36.218Z,65.53
2016-05-27T11:15:36.206Z,65.63
2016-05-27T11:16:36.256Z,65.14
2016-05-27T11:17:36.197Z,65.14
2016-05-27T11:18:36.199Z,64.95
2016-05-27T11:19:36.000Z,65.43
2016-05-27T11:20:36.206Z,65.72
2016-05-27T11:21:36.193Z,65.33
2016-05-27T11:22:36.274Z,65.14
2016-05-27T11:23:35.996Z,65.43
2016-05-27T11:24:36.202Z,66.01
2016-05-27T11:25:36.409Z,65.63
2016-05-27T11:26:36.396Z,65.72
2016-05-27T11:27:36.399Z,65.56
2016-05-27T11:28:36.244Z,65.43
2016-05-27T11:29:36.185Z,65.75
2016-05-27T11:30:36.390Z,66.43
2016-05-27T11:31:36.393Z,65.95
2016-05-27T11:32:36.193Z,65.75
2016-05-27T11:33:36.398Z,65.95
2016-05-27T11:34:35.980Z,65.85
2016-05-27T11:35:36.232Z,65.56
2016-05-27T11:36:36.187Z,65.37
2016-05-27T11:37:36.394Z,65.95
2016-05-27T11:38:36.178Z,65.75
2016-05-27T11:39:36.384Z,65.66
2016-05-27T11:40:36.184Z,65.85
2016-05-27T11:41:36.170Z,65.75
2016-05-27T11:42:36.392Z,66.04
2016-05-27T11:43:35.973Z,65.56
2016-05-27T11:44:36.178Z,65.66
2016-05-27T11:45:36.181Z,65.85
2016-05-27T11:46:36.371Z,65.47
2016-05-27T11:47:36.373Z,65.47
2016-05-27T11:48:36.173Z,65.66
2016-05-27T11:49:36.379Z,65.27
2016-05-27T11:50:36.178Z,65.56
2016-05-27T11:51:35.823Z,65.47
2016-05-27T11:52:36.169Z,65.17
2016-05-27T11:53:36.171Z,65.37
2016-05-27T11:54:36.158Z,65.56
2016-05-27T11:55:35.974Z,65.27
2016-05-27T11:56:35.960Z,65.56
2016-05-27T11:57:35.994Z,65.47
2016-05-27T11:58:36.169Z,65.56
2016-05-27T11:59:36.171Z,65.2
2016-05-27T12:00:36.003Z,65.2
2016-05-27T12:01:35.958Z,64.82
2016-05-27T12:02:35.961Z,64.82
2016-05-27T12:03:36.354Z,64.92
2016-05-27T12:04:37.044Z,64.82
2016-05-27T12:05:36.360Z,64.82
2016-05-27T12:06:36.363Z,64.82
2016-05-27T12:07:36.162Z,64.82
2016-05-27T12:08:35.790Z,64.53
2016-05-27T12:09:35.948Z,64.92
2016-05-27T12:10:35.952Z,64.63
2016-05-27T12:11:36.157Z,64.53
2016-05-27T12:12:35.957Z,64.63
2016-05-27T12:13:35.787Z,64.72
2016-05-27T12:14:36.150Z,64.43
2016-05-27T12:15:36.153Z,64.63
2016-05-27T12:16:36.155Z,64.43
2016-05-27T12:17:36.142Z,64.24
2016-05-27T12:18:36.347Z,64.24
2016-05-27T12:19:35.804Z,64.43
2016-05-27T12:20:36.353Z,64.24
2016-05-27T12:21:36.152Z,64.34
2016-05-27T12:22:36.343Z,64.34
2016-05-27T12:23:35.986Z,64.43
2016-05-27T12:24:36.161Z,64.24
2016-05-27T12:25:36.351Z,64.34
2016-05-27T12:26:36.135Z,64.34
2016-05-27T12:27:35.981Z,64.43
2016-05-27T12:28:36.343Z,64.34
2016-05-27T12:29:36.330Z,64.43
2016-05-27T12:30:36.146Z,64.24
2016-05-27T12:31:36.132Z,64.28
2016-05-27T12:32:36.338Z,64.15
2016-05-27T12:33:36.138Z,64.43
2016-05-27T12:34:36.157Z,64.05
2016-05-27T12:35:36.128Z,64.05
2016-05-27T12:36:36.130Z,64.05
2016-05-27T12:37:35.930Z,64.34
2016-05-27T12:38:36.136Z,63.76
2016-05-27T12:39:36.342Z,64.15
2016-05-27T12:40:36.141Z,64.15
2016-05-27T12:41:35.926Z,63.85
2016-05-27T12:42:36.334Z,64.15
2016-05-27T12:43:36.134Z,63.76
2016-05-27T12:44:36.120Z,64.08
2016-05-27T12:45:36.342Z,63.95
2016-05-27T12:46:36.329Z,63.95
2016-05-27T12:47:35.973Z,63.76
2016-05-27T12:48:36.132Z,64.08
2016-05-27T12:49:35.931Z,63.76
2016-05-27T12:50:35.981Z,64.08
2016-05-27T12:51:36.328Z,63.98
2016-05-27T12:52:36.345Z,63.7
2016-05-27T12:53:36.130Z,63.57
2016-05-27T12:54:36.288Z,63.7
2016-05-27T12:55:36.135Z,64.15